sensor_id;sensor_type;location;lat;lon;timestamp;pressure;altitude;pressure_sealevel;temperature;humidity
61119;BME280;51448;51.660;5.824;2023-05-20T00:02:02;102303.13;;;12.94;69.86
61119;BME280;51448;51.660;5.824;2023-05-20T00:04:50;102303.19;;;12.89;69.90
61119;BME280;51448;51.660;5.824;2023-05-20T00:07:38;102304.13;;;12.86;70.00
61119;BME280;51448;51.660;5.824;2023-05-20T00:10:26;102301.50;;;12.83;70.60
61119;BME280;51448;51.660;5.824;2023-05-20T00:13:14;102300.72;;;12.78;70.53
61119;BME280;51448;51.660;5.824;2023-05-20T00:16:02;102301.66;;;12.74;71.17
61119;BME280;51448;51.660;5.824;2023-05-20T00:18:50;102294.66;;;12.70;71.45
61119;BME280;51448;51.660;5.824;2023-05-20T00:21:38;102299.09;;;12.68;71.92
61119;BME280;51448;51.660;5.824;2023-05-20T00:24:26;102300.03;;;12.64;71.58
61119;BME280;51448;51.660;5.824;2023-05-20T00:27:14;102303.59;;;12.60;72.30
61119;BME280;51448;51.660;5.824;2023-05-20T00:30:02;102300.97;;;12.58;71.87
61119;BME280;51448;51.660;5.824;2023-05-20T00:32:50;102295.72;;;12.57;73.00
61119;BME280;51448;51.660;5.824;2023-05-20T00:35:38;102301.91;;;12.56;73.04
61119;BME280;51448;51.660;5.824;2023-05-20T00:38:26;102294.91;;;12.52;73.10
61119;BME280;51448;51.660;5.824;2023-05-20T00:41:14;102300.22;;;12.48;73.59
61119;BME280;51448;51.660;5.824;2023-05-20T00:44:02;102297.63;;;12.47;74.21
61119;BME280;51448;51.660;5.824;2023-05-20T00:46:50;102296.78;;;12.43;74.00
61119;BME280;51448;51.660;5.824;2023-05-20T00:49:38;102292.44;;;12.39;73.87
61119;BME280;51448;51.660;5.824;2023-05-20T00:52:30;102291.56;;;12.37;73.72
61119;BME280;51448;51.660;5.824;2023-05-20T00:55:22;102289.88;;;12.33;74.02
61119;BME280;51448;51.660;5.824;2023-05-20T00:58:10;102287.28;;;12.28;74.81
61119;BME280;51448;51.660;5.824;2023-05-20T01:00:58;102295.22;;;12.27;74.67
61119;BME280;51448;51.660;5.824;2023-05-20T01:03:46;102290.88;;;12.23;75.40
61119;BME280;51448;51.660;5.824;2023-05-20T01:06:35;102294.44;;;12.19;75.58
61119;BME280;51448;51.660;5.824;2023-05-20T01:09:24;102283.91;;;12.16;75.56
61119;BME280;51448;51.660;5.824;2023-05-20T01:12:22;102287.44;;;12.15;75.61
61119;BME280;51448;51.660;5.824;2023-05-20T01:15:16;102287.50;;;12.10;75.58
61119;BME280;51448;51.660;5.824;2023-05-20T01:18:07;102287.50;;;12.08;76.01
61119;BME280;51448;51.660;5.824;2023-05-20T01:20:57;102286.72;;;12.00;75.08
61119;BME280;51448;51.660;5.824;2023-05-20T01:23:48;102287.63;;;11.98;75.85
61119;BME280;51448;51.660;5.824;2023-05-20T01:26:36;102284.97;;;11.99;76.05
61119;BME280;51448;51.660;5.824;2023-05-20T01:29:25;102285.84;;;12.00;76.46
61119;BME280;51448;51.660;5.824;2023-05-20T01:32:29;102282.31;;;11.99;76.68
61119;BME280;51448;51.660;5.824;2023-05-20T01:35:21;102285.88;;;11.98;77.36
61119;BME280;51448;51.660;5.824;2023-05-20T01:38:10;102277.97;;;11.95;76.98
61119;BME280;51448;51.660;5.824;2023-05-20T01:41:01;102276.22;;;11.96;77.46
61119;BME280;51448;51.660;5.824;2023-05-20T01:43:52;102271.84;;;11.93;77.98
61119;BME280;51448;51.660;5.824;2023-05-20T01:46:48;102270.97;;;11.93;77.94
61119;BME280;51448;51.660;5.824;2023-05-20T01:49:36;102272.75;;;11.92;78.10
61119;BME280;51448;51.660;5.824;2023-05-20T01:52:24;102276.25;;;11.91;77.76
61119;BME280;51448;51.660;5.824;2023-05-20T01:55:12;102270.97;;;11.91;77.66
61119;BME280;51448;51.660;5.824;2023-05-20T01:58:01;102269.22;;;11.93;77.94
61119;BME280;51448;51.660;5.824;2023-05-20T02:00:49;102270.06;;;11.95;78.71
61119;BME280;51448;51.660;5.824;2023-05-20T02:03:38;102260.41;;;11.96;78.89
61119;BME280;51448;51.660;5.824;2023-05-20T02:06:26;102261.28;;;11.98;79.32
61119;BME280;51448;51.660;5.824;2023-05-20T02:09:14;102265.66;;;11.97;79.05
61119;BME280;51448;51.660;5.824;2023-05-20T02:12:04;102263.06;;;11.96;79.52
61119;BME280;51448;51.660;5.824;2023-05-20T02:14:54;102265.69;;;11.94;79.34
61119;BME280;51448;51.660;5.824;2023-05-20T02:17:42;102256.06;;;11.92;79.13
61119;BME280;51448;51.660;5.824;2023-05-20T02:20:30;102264.84;;;11.91;79.99
61119;BME280;51448;51.660;5.824;2023-05-20T02:23:20;102263.13;;;11.90;79.78
61119;BME280;51448;51.660;5.824;2023-05-20T02:26:08;102263.09;;;11.88;80.15
61119;BME280;51448;51.660;5.824;2023-05-20T02:28:56;102256.09;;;11.85;79.67
61119;BME280;51448;51.660;5.824;2023-05-20T02:31:44;102249.94;;;11.85;79.62
61119;BME280;51448;51.660;5.824;2023-05-20T02:34:32;102254.34;;;11.83;80.03
61119;BME280;51448;51.660;5.824;2023-05-20T02:37:20;102254.38;;;11.80;81.25
61119;BME280;51448;51.660;5.824;2023-05-20T02:40:09;102250.03;;;11.76;80.73
61119;BME280;51448;51.660;5.824;2023-05-20T02:42:59;102251.84;;;11.71;81.12
61119;BME280;51448;51.660;5.824;2023-05-20T02:45:48;102264.19;;;11.65;80.85
61119;BME280;51448;51.660;5.824;2023-05-20T02:48:36;102265.06;;;11.64;80.81
61119;BME280;51448;51.660;5.824;2023-05-20T02:51:24;102262.47;;;11.61;81.40
61119;BME280;51448;51.660;5.824;2023-05-20T02:54:12;102252.84;;;11.59;81.88
61119;BME280;51448;51.660;5.824;2023-05-20T02:57:00;102255.50;;;11.57;81.83
61119;BME280;51448;51.660;5.824;2023-05-20T02:59:50;102258.16;;;11.54;82.21
61119;BME280;51448;51.660;5.824;2023-05-20T03:02:38;102259.06;;;11.52;82.54
61119;BME280;51448;51.660;5.824;2023-05-20T03:05:27;102247.66;;;11.48;82.70
61119;BME280;51448;51.660;5.824;2023-05-20T03:08:18;102243.28;;;11.47;83.20
61119;BME280;51448;51.660;5.824;2023-05-20T03:11:07;102239.84;;;11.39;82.36
61119;BME280;51448;51.660;5.824;2023-05-20T03:13:55;102234.59;;;11.36;82.73
61119;BME280;51448;51.660;5.824;2023-05-20T03:16:45;102249.53;;;11.34;83.41
61119;BME280;51448;51.660;5.824;2023-05-20T03:19:33;102249.59;;;11.32;83.37
61119;BME280;51448;51.660;5.824;2023-05-20T03:22:23;102254.84;;;11.31;83.74
61119;BME280;51448;51.660;5.824;2023-05-20T03:25:11;102254.00;;;11.27;83.90
61119;BME280;51448;51.660;5.824;2023-05-20T03:27:59;102255.75;;;11.26;83.92
61119;BME280;51448;51.660;5.824;2023-05-20T03:30:48;102253.13;;;11.25;83.99
61119;BME280;51448;51.660;5.824;2023-05-20T03:33:37;102245.25;;;11.23;83.70
61119;BME280;51448;51.660;5.824;2023-05-20T03:36:25;102248.78;;;11.22;84.77
61119;BME280;51448;51.660;5.824;2023-05-20T03:39:13;102260.19;;;11.21;84.77
61119;BME280;51448;51.660;5.824;2023-05-20T03:42:01;102247.06;;;11.20;84.88
61119;BME280;51448;51.660;5.824;2023-05-20T03:44:49;102252.31;;;11.18;84.77
61119;BME280;51448;51.660;5.824;2023-05-20T03:47:38;102250.56;;;11.17;85.15
61119;BME280;51448;51.660;5.824;2023-05-20T03:50:26;102240.94;;;11.15;85.21
61119;BME280;51448;51.660;5.824;2023-05-20T03:53:14;102251.47;;;11.13;85.23
61119;BME280;51448;51.660;5.824;2023-05-20T03:56:02;102255.00;;;11.12;85.26
61119;BME280;51448;51.660;5.824;2023-05-20T03:58:50;102255.00;;;11.14;85.34
61119;BME280;51448;51.660;5.824;2023-05-20T04:01:38;102248.84;;;11.13;85.41
61119;BME280;51448;51.660;5.824;2023-05-20T04:04:26;102252.38;;;11.12;85.67
61119;BME280;51448;51.660;5.824;2023-05-20T04:07:14;102250.59;;;11.11;85.21
61119;BME280;51448;51.660;5.824;2023-05-20T04:10:03;102241.84;;;11.12;85.95
61119;BME280;51448;51.660;5.824;2023-05-20T04:12:52;102247.97;;;11.11;85.85
61119;BME280;51448;51.660;5.824;2023-05-20T04:15:41;102244.47;;;11.11;86.26
61119;BME280;51448;51.660;5.824;2023-05-20T04:18:30;102242.75;;;11.10;85.99
61119;BME280;51448;51.660;5.824;2023-05-20T04:21:18;102248.88;;;11.10;86.59
61119;BME280;51448;51.660;5.824;2023-05-20T04:24:07;102255.88;;;11.11;86.65
61119;BME280;51448;51.660;5.824;2023-05-20T04:26:55;102253.22;;;11.14;86.78
61119;BME280;51448;51.660;5.824;2023-05-20T04:29:43;102258.47;;;11.19;87.12
61119;BME280;51448;51.660;5.824;2023-05-20T04:32:33;102267.22;;;11.21;86.66
61119;BME280;51448;51.660;5.824;2023-05-20T04:35:21;102255.78;;;11.25;86.94
61119;BME280;51448;51.660;5.824;2023-05-20T04:38:14;102260.13;;;11.31;87.24
61119;BME280;51448;51.660;5.824;2023-05-20T04:41:03;102260.94;;;11.36;87.58
61119;BME280;51448;51.660;5.824;2023-05-20T04:43:51;102255.59;;;11.46;87.15
61119;BME280;51448;51.660;5.824;2023-05-20T04:46:41;102252.63;;;11.82;86.49
61119;BME280;51448;51.660;5.824;2023-05-20T04:49:29;102247.97;;;12.05;86.22
61119;BME280;51448;51.660;5.824;2023-05-20T04:52:17;102252.09;;;12.28;85.71
61119;BME280;51448;51.660;5.824;2023-05-20T04:55:06;102252.78;;;12.42;85.17
61119;BME280;51448;51.660;5.824;2023-05-20T04:57:58;102242.22;;;12.45;84.50
61119;BME280;51448;51.660;5.824;2023-05-20T05:00:47;102247.50;;;12.42;84.90
61119;BME280;51448;51.660;5.824;2023-05-20T05:03:35;102241.44;;;12.39;84.91
61119;BME280;51448;51.660;5.824;2023-05-20T05:06:24;102248.50;;;12.35;84.79
61119;BME280;51448;51.660;5.824;2023-05-20T05:09:12;102248.53;;;12.34;85.13
61119;BME280;51448;51.660;5.824;2023-05-20T05:12:02;102242.38;;;12.33;85.40
61119;BME280;51448;51.660;5.824;2023-05-20T05:14:49;102243.25;;;12.32;85.26
61119;BME280;51448;51.660;5.824;2023-05-20T05:17:38;102244.09;;;12.34;85.17
61119;BME280;51448;51.660;5.824;2023-05-20T05:20:26;102244.09;;;12.37;85.48
61119;BME280;51448;51.660;5.824;2023-05-20T05:23:14;102238.75;;;12.40;85.45
61119;BME280;51448;51.660;5.824;2023-05-20T05:26:02;102233.44;;;12.43;85.60
61119;BME280;51448;51.660;5.824;2023-05-20T05:28:53;102240.44;;;12.47;85.33
61119;BME280;51448;51.660;5.824;2023-05-20T05:31:42;102247.41;;;12.52;85.16
61119;BME280;51448;51.660;5.824;2023-05-20T05:34:30;102239.41;;;12.56;85.38
61119;BME280;51448;51.660;5.824;2023-05-20T05:37:18;102241.09;;;12.62;84.94
61119;BME280;51448;51.660;5.824;2023-05-20T05:40:07;102246.28;;;12.70;84.73
61119;BME280;51448;51.660;5.824;2023-05-20T05:42:55;102240.06;;;12.74;84.82
61119;BME280;51448;51.660;5.824;2023-05-20T05:45:44;102248.75;;;12.80;84.91
61119;BME280;51448;51.660;5.824;2023-05-20T05:48:32;102242.47;;;12.87;84.92
61119;BME280;51448;51.660;5.824;2023-05-20T05:51:21;102239.75;;;12.94;84.49
61119;BME280;51448;51.660;5.824;2023-05-20T05:54:09;102236.13;;;13.01;84.02
61119;BME280;51448;51.660;5.824;2023-05-20T05:56:57;102238.59;;;13.10;83.91
61119;BME280;51448;51.660;5.824;2023-05-20T05:59:48;102248.19;;;13.17;83.41
61119;BME280;51448;51.660;5.824;2023-05-20T06:02:36;102241.00;;;13.27;82.87
61119;BME280;51448;51.660;5.824;2023-05-20T06:05:24;102235.59;;;13.35;82.77
61119;BME280;51448;51.660;5.824;2023-05-20T06:08:17;102236.28;;;13.46;82.69
61119;BME280;51448;51.660;5.824;2023-05-20T06:11:05;102226.34;;;13.60;81.79
61119;BME280;51448;51.660;5.824;2023-05-20T06:13:53;102234.00;;;13.74;81.62
61119;BME280;51448;51.660;5.824;2023-05-20T06:16:41;102236.31;;;13.91;80.80
61119;BME280;51448;51.660;5.824;2023-05-20T06:19:29;102223.59;;;14.10;80.81
61119;BME280;51448;51.660;5.824;2023-05-20T06:22:17;102225.81;;;14.30;80.00
61119;BME280;51448;51.660;5.824;2023-05-20T06:25:06;102221.03;;;14.47;79.13
61119;BME280;51448;51.660;5.824;2023-05-20T06:27:55;102213.63;;;14.65;78.15
61119;BME280;51448;51.660;5.824;2023-05-20T06:30:44;102212.34;;;14.81;77.50
61119;BME280;51448;51.660;5.824;2023-05-20T06:33:32;102208.41;;;14.98;77.56
61119;BME280;51448;51.660;5.824;2023-05-20T06:36:26;102214.09;;;15.18;76.46
61119;BME280;51448;51.660;5.824;2023-05-20T06:39:14;102212.84;;;15.32;75.63
61119;BME280;51448;51.660;5.824;2023-05-20T06:42:04;102199.22;;;15.47;75.26
61119;BME280;51448;51.660;5.824;2023-05-20T06:44:55;102193.53;;;15.61;74.33
61119;BME280;51448;51.660;5.824;2023-05-20T06:48:00;102196.53;;;15.81;73.93
61119;BME280;51448;51.660;5.824;2023-05-20T06:50:49;102195.94;;;16.01;73.54
61119;BME280;51448;51.660;5.824;2023-05-20T06:53:37;102195.22;;;16.26;72.40
61119;BME280;51448;51.660;5.824;2023-05-20T06:56:25;102192.09;;;16.41;71.12
61119;BME280;51448;51.660;5.824;2023-05-20T06:59:14;102190.72;;;16.58;70.85
61119;BME280;51448;51.660;5.824;2023-05-20T07:02:03;102193.63;;;16.77;70.76
61119;BME280;51448;51.660;5.824;2023-05-20T07:04:52;102188.69;;;16.94;68.55
61119;BME280;51448;51.660;5.824;2023-05-20T07:07:40;102188.47;;;17.00;68.28
61119;BME280;51448;51.660;5.824;2023-05-20T07:10:29;102188.06;;;17.13;67.33
61119;BME280;51448;51.660;5.824;2023-05-20T07:13:17;102185.13;;;17.20;66.48
61119;BME280;51448;51.660;5.824;2023-05-20T07:16:05;102182.75;;;17.38;67.37
61119;BME280;51448;51.660;5.824;2023-05-20T07:18:55;102191.81;;;17.57;65.55
61119;BME280;51448;51.660;5.824;2023-05-20T07:21:46;102188.13;;;17.61;65.01
61119;BME280;51448;51.660;5.824;2023-05-20T07:24:55;102178.19;;;17.66;64.46
61119;BME280;51448;51.660;5.824;2023-05-20T07:27:45;102176.94;;;17.77;64.42
61119;BME280;51448;51.660;5.824;2023-05-20T07:30:33;102179.03;;;17.92;64.36
61119;BME280;51448;51.660;5.824;2023-05-20T07:33:43;102173.19;;;18.06;63.57
61119;BME280;51448;51.660;5.824;2023-05-20T07:36:31;102165.50;;;18.22;63.03
61119;BME280;51448;51.660;5.824;2023-05-20T07:39:24;102163.41;;;18.30;61.35
61119;BME280;51448;51.660;5.824;2023-05-20T07:42:13;102157.81;;;18.36;60.94
61119;BME280;51448;51.660;5.824;2023-05-20T07:45:04;102163.09;;;18.38;60.12
61119;BME280;51448;51.660;5.824;2023-05-20T07:47:53;102156.81;;;18.39;60.24
61119;BME280;51448;51.660;5.824;2023-05-20T07:50:44;102155.47;;;18.50;60.64
61119;BME280;51448;51.660;5.824;2023-05-20T07:53:32;102161.41;;;18.57;58.92
61119;BME280;51448;51.660;5.824;2023-05-20T07:56:22;102154.97;;;18.63;59.92
61119;BME280;51448;51.660;5.824;2023-05-20T07:59:13;102155.59;;;18.69;59.52
61119;BME280;51448;51.660;5.824;2023-05-20T08:02:05;102154.41;;;18.77;58.54
61119;BME280;51448;51.660;5.824;2023-05-20T08:04:54;102144.41;;;18.83;57.87
61119;BME280;51448;51.660;5.824;2023-05-20T08:07:42;102153.38;;;18.81;56.83
61119;BME280;51448;51.660;5.824;2023-05-20T08:10:35;102148.78;;;18.84;56.82
61119;BME280;51448;51.660;5.824;2023-05-20T08:13:23;102142.31;;;18.90;57.21
61119;BME280;51448;51.660;5.824;2023-05-20T08:16:16;102148.16;;;19.00;56.50
61119;BME280;51448;51.660;5.824;2023-05-20T08:19:10;102142.59;;;19.04;55.85
61119;BME280;51448;51.660;5.824;2023-05-20T08:21:58;102152.53;;;19.01;55.31
61119;BME280;51448;51.660;5.824;2023-05-20T08:24:46;102147.28;;;18.99;55.91
61119;BME280;51448;51.660;5.824;2023-05-20T08:27:35;102127.28;;;19.09;56.43
61119;BME280;51448;51.660;5.824;2023-05-20T08:30:26;102150.66;;;19.23;55.91
61119;BME280;51448;51.660;5.824;2023-05-20T08:33:20;102149.69;;;19.26;54.07
61119;BME280;51448;51.660;5.824;2023-05-20T08:36:09;102137.28;;;19.25;53.56
61119;BME280;51448;51.660;5.824;2023-05-20T08:38:58;102129.47;;;19.20;54.63
61119;BME280;51448;51.660;5.824;2023-05-20T08:41:48;102133.75;;;19.24;54.55
61119;BME280;51448;51.660;5.824;2023-05-20T08:44:43;102125.69;;;19.26;54.41
61119;BME280;51448;51.660;5.824;2023-05-20T08:47:32;102124.88;;;19.24;54.47
61119;BME280;51448;51.660;5.824;2023-05-20T08:50:20;102116.88;;;19.24;54.37
61119;BME280;51448;51.660;5.824;2023-05-20T08:53:14;102112.63;;;19.20;53.84
61119;BME280;51448;51.660;5.824;2023-05-20T08:56:02;102120.41;;;19.24;54.18
61119;BME280;51448;51.660;5.824;2023-05-20T08:58:53;102113.78;;;19.33;54.13
61119;BME280;51448;51.660;5.824;2023-05-20T09:02:04;102111.94;;;19.35;53.35
61119;BME280;51448;51.660;5.824;2023-05-20T09:04:55;102111.88;;;19.37;53.48
61119;BME280;51448;51.660;5.824;2023-05-20T09:07:44;102102.00;;;19.39;53.80
61119;BME280;51448;51.660;5.824;2023-05-20T09:10:33;102105.19;;;19.47;54.66
61119;BME280;51448;51.660;5.824;2023-05-20T09:13:23;102105.69;;;19.55;53.25
61119;BME280;51448;51.660;5.824;2023-05-20T09:16:11;102104.09;;;19.51;53.41
61119;BME280;51448;51.660;5.824;2023-05-20T09:19:07;102097.25;;;19.45;52.94
61119;BME280;51448;51.660;5.824;2023-05-20T09:22:02;102100.97;;;19.41;54.01
61119;BME280;51448;51.660;5.824;2023-05-20T09:24:56;102103.44;;;19.46;53.17
61119;BME280;51448;51.660;5.824;2023-05-20T09:28:03;102099.69;;;19.50;53.46
61119;BME280;51448;51.660;5.824;2023-05-20T09:30:59;102092.72;;;19.66;52.42
61119;BME280;51448;51.660;5.824;2023-05-20T09:33:48;102101.19;;;19.76;52.69
61119;BME280;51448;51.660;5.824;2023-05-20T09:36:38;102095.28;;;19.88;50.87
61119;BME280;51448;51.660;5.824;2023-05-20T09:39:31;102098.19;;;19.84;51.03
61119;BME280;51448;51.660;5.824;2023-05-20T09:45:43;102093.13;;;19.78;51.45
61119;BME280;51448;51.660;5.824;2023-05-20T09:48:32;102102.78;;;19.80;51.28
61119;BME280;51448;51.660;5.824;2023-05-20T09:51:25;102098.31;;;19.81;50.88
61119;BME280;51448;51.660;5.824;2023-05-20T09:54:25;102097.94;;;19.88;51.25
61119;BME280;51448;51.660;5.824;2023-05-20T09:57:16;102096.00;;;19.92;51.05
61119;BME280;51448;51.660;5.824;2023-05-20T10:00:08;102091.41;;;19.96;51.39
61119;BME280;51448;51.660;5.824;2023-05-20T10:03:01;102095.72;;;19.98;51.13
61119;BME280;51448;51.660;5.824;2023-05-20T10:09:08;102092.47;;;20.10;50.88
61119;BME280;51448;51.660;5.824;2023-05-20T10:12:38;102093.81;;;20.19;50.90
61119;BME280;51448;51.660;5.824;2023-05-20T10:22:28;102073.03;;;20.43;51.11
61119;BME280;51448;51.660;5.824;2023-05-20T10:25:24;102071.47;;;20.57;49.44
61119;BME280;51448;51.660;5.824;2023-05-20T10:28:27;102073.34;;;20.55;49.22
61119;BME280;51448;51.660;5.824;2023-05-20T10:31:43;102060.19;;;20.69;50.42
61119;BME280;51448;51.660;5.824;2023-05-20T10:34:46;102048.41;;;20.90;49.40
61119;BME280;51448;51.660;5.824;2023-05-20T10:37:43;102060.50;;;20.80;49.79
61119;BME280;51448;51.660;5.824;2023-05-20T10:40:35;102056.41;;;20.56;48.58
61119;BME280;51448;51.660;5.824;2023-05-20T10:43:27;102050.16;;;20.38;48.54
61119;BME280;51448;51.660;5.824;2023-05-20T10:46:17;102055.75;;;20.50;49.79
61119;BME280;51448;51.660;5.824;2023-05-20T10:49:32;102052.75;;;20.76;49.14
61119;BME280;51448;51.660;5.824;2023-05-20T10:52:32;102063.19;;;20.80;48.90
61119;BME280;51448;51.660;5.824;2023-05-20T10:55:23;102052.50;;;20.80;49.21
61119;BME280;51448;51.660;5.824;2023-05-20T10:58:11;102041.94;;;20.77;49.17
61119;BME280;51448;51.660;5.824;2023-05-20T11:01:04;102049.34;;;20.72;49.33
61119;BME280;51448;51.660;5.824;2023-05-20T11:03:56;102050.97;;;20.57;48.88
61119;BME280;51448;51.660;5.824;2023-05-20T11:06:56;102045.16;;;20.49;49.64
61119;BME280;51448;51.660;5.824;2023-05-20T11:09:48;102041.47;;;20.52;50.66
61119;BME280;51448;51.660;5.824;2023-05-20T11:12:38;102034.22;;;20.54;50.46
61119;BME280;51448;51.660;5.824;2023-05-20T11:15:26;102033.25;;;20.55;49.92
61119;BME280;51448;51.660;5.824;2023-05-20T11:18:15;102035.16;;;20.53;49.76
61119;BME280;51448;51.660;5.824;2023-05-20T11:21:05;102033.38;;;20.53;50.40
61119;BME280;51448;51.660;5.824;2023-05-20T11:23:53;102025.44;;;20.69;50.84
61119;BME280;51448;51.660;5.824;2023-05-20T11:26:41;102024.19;;;20.76;50.48
61119;BME280;51448;51.660;5.824;2023-05-20T11:29:29;102025.38;;;20.70;50.25
61119;BME280;51448;51.660;5.824;2023-05-20T11:32:19;102024.19;;;20.59;50.33
61119;BME280;51448;51.660;5.824;2023-05-20T11:35:23;102024.97;;;20.61;50.51
61119;BME280;51448;51.660;5.824;2023-05-20T11:38:19;102027.66;;;20.78;50.35
61119;BME280;51448;51.660;5.824;2023-05-20T11:41:08;102018.94;;;21.08;50.53
61119;BME280;51448;51.660;5.824;2023-05-20T11:44:01;102019.69;;;21.27;51.25
61119;BME280;51448;51.660;5.824;2023-05-20T11:46:49;102030.00;;;21.51;49.20
61119;BME280;51448;51.660;5.824;2023-05-20T11:49:47;102020.69;;;21.42;48.77
61119;BME280;51448;51.660;5.824;2023-05-20T11:52:36;102014.00;;;21.34;49.14
61119;BME280;51448;51.660;5.824;2023-05-20T11:55:53;102016.03;;;21.28;49.73
61119;BME280;51448;51.660;5.824;2023-05-20T11:58:53;102007.94;;;21.30;49.38
61119;BME280;51448;51.660;5.824;2023-05-20T12:01:51;102012.06;;;21.20;49.25
61119;BME280;51448;51.660;5.824;2023-05-20T12:04:42;101991.25;;;21.09;48.42
61119;BME280;51448;51.660;5.824;2023-05-20T12:07:30;101993.03;;;20.93;49.61
61119;BME280;51448;51.660;5.824;2023-05-20T12:10:18;101993.88;;;20.93;49.96
61119;BME280;51448;51.660;5.824;2023-05-20T12:13:06;101995.53;;;20.96;50.21
61119;BME280;51448;51.660;5.824;2023-05-20T12:15:59;101995.19;;;21.02;50.01
61119;BME280;51448;51.660;5.824;2023-05-20T12:18:53;101996.41;;;21.12;50.87
61119;BME280;51448;51.660;5.824;2023-05-20T12:21:43;101994.22;;;21.36;51.16
61119;BME280;51448;51.660;5.824;2023-05-20T12:24:33;102001.59;;;21.48;49.42
61119;BME280;51448;51.660;5.824;2023-05-20T12:27:25;101996.44;;;21.45;49.17
61119;BME280;51448;51.660;5.824;2023-05-20T12:30:15;101983.13;;;21.44;49.77
61119;BME280;51448;51.660;5.824;2023-05-20T12:33:04;101978.81;;;21.57;49.49
61119;BME280;51448;51.660;5.824;2023-05-20T12:35:58;101979.84;;;21.70;49.15
61119;BME280;51448;51.660;5.824;2023-05-20T12:38:49;101974.84;;;21.80;48.59
61119;BME280;51448;51.660;5.824;2023-05-20T12:41:37;101986.63;;;21.92;47.85
61119;BME280;51448;51.660;5.824;2023-05-20T12:44:26;101985.72;;;21.77;47.48
61119;BME280;51448;51.660;5.824;2023-05-20T12:47:14;101991.59;;;21.68;47.94
61119;BME280;51448;51.660;5.824;2023-05-20T12:50:02;101981.84;;;21.67;47.99
61119;BME280;51448;51.660;5.824;2023-05-20T12:52:50;101989.00;;;21.66;47.63
61119;BME280;51448;51.660;5.824;2023-05-20T12:55:39;101997.47;;;21.59;47.62
61119;BME280;51448;51.660;5.824;2023-05-20T12:58:27;101996.53;;;21.44;47.30
61119;BME280;51448;51.660;5.824;2023-05-20T13:01:15;101992.50;;;21.35;48.36
61119;BME280;51448;51.660;5.824;2023-05-20T13:04:04;101983.53;;;21.36;49.29
61119;BME280;51448;51.660;5.824;2023-05-20T13:06:52;101986.25;;;21.52;48.81
61119;BME280;51448;51.660;5.824;2023-05-20T13:09:40;101980.91;;;21.68;48.74
61119;BME280;51448;51.660;5.824;2023-05-20T13:12:28;101971.47;;;21.77;48.51
61119;BME280;51448;51.660;5.824;2023-05-20T13:15:16;101992.13;;;21.75;47.71
61119;BME280;51448;51.660;5.824;2023-05-20T13:18:04;101976.75;;;21.62;47.93
61119;BME280;51448;51.660;5.824;2023-05-20T13:20:55;101968.72;;;21.62;48.72
61119;BME280;51448;51.660;5.824;2023-05-20T13:23:46;101969.56;;;21.63;48.45
61119;BME280;51448;51.660;5.824;2023-05-20T13:26:36;101971.41;;;21.62;48.37
61119;BME280;51448;51.660;5.824;2023-05-20T13:29:26;101973.81;;;21.67;48.65
61119;BME280;51448;51.660;5.824;2023-05-20T13:32:14;101965.50;;;21.72;47.57
61119;BME280;51448;51.660;5.824;2023-05-20T13:35:55;101958.44;;;21.70;48.48
61119;BME280;51448;51.660;5.824;2023-05-20T13:38:55;101963.78;;;21.70;48.78
61119;BME280;51448;51.660;5.824;2023-05-20T13:42:01;101950.13;;;21.75;48.70
61119;BME280;51448;51.660;5.824;2023-05-20T13:45:02;101951.69;;;21.79;47.96
61119;BME280;51448;51.660;5.824;2023-05-20T13:48:09;101944.41;;;21.81;47.66
61119;BME280;51448;51.660;5.824;2023-05-20T13:51:00;101933.03;;;21.78;48.35
61119;BME280;51448;51.660;5.824;2023-05-20T13:54:04;101925.41;;;21.86;48.15
61119;BME280;51448;51.660;5.824;2023-05-20T13:57:08;101911.66;;;21.92;47.74
61119;BME280;51448;51.660;5.824;2023-05-20T14:07:05;101911.94;;;21.87;47.54
61119;BME280;51448;51.660;5.824;2023-05-20T14:09:56;101910.31;;;21.85;47.61
61119;BME280;51448;51.660;5.824;2023-05-20T14:12:44;101907.00;;;21.80;47.43
61119;BME280;51448;51.660;5.824;2023-05-20T14:15:35;101898.47;;;21.73;48.07
61119;BME280;51448;51.660;5.824;2023-05-20T14:18:23;101902.78;;;21.76;47.83
61119;BME280;51448;51.660;5.824;2023-05-20T14:21:11;101897.28;;;21.79;47.90
61119;BME280;51448;51.660;5.824;2023-05-20T14:23:59;101893.81;;;21.77;48.02
61119;BME280;51448;51.660;5.824;2023-05-20T14:26:47;101890.38;;;21.75;48.08
61119;BME280;51448;51.660;5.824;2023-05-20T14:29:35;101892.28;;;21.73;47.88
61119;BME280;51448;51.660;5.824;2023-05-20T14:32:23;101880.19;;;21.65;47.46
61119;BME280;51448;51.660;5.824;2023-05-20T14:35:11;101876.06;;;21.60;47.85
61119;BME280;51448;51.660;5.824;2023-05-20T14:37:59;101886.34;;;21.52;48.17
61119;BME280;51448;51.660;5.824;2023-05-20T14:40:47;101866.94;;;21.48;48.11
61119;BME280;51448;51.660;5.824;2023-05-20T14:43:35;101880.03;;;21.53;48.42
61119;BME280;51448;51.660;5.824;2023-05-20T14:46:23;101877.00;;;21.59;48.49
61119;BME280;51448;51.660;5.824;2023-05-20T14:49:11;101872.94;;;21.67;48.65
61119;BME280;51448;51.660;5.824;2023-05-20T14:51:59;101872.69;;;21.72;48.35
61119;BME280;51448;51.660;5.824;2023-05-20T14:54:47;101865.50;;;21.73;47.70
61119;BME280;51448;51.660;5.824;2023-05-20T14:57:35;101861.28;;;21.68;46.93
61119;BME280;51448;51.660;5.824;2023-05-20T15:00:23;101866.56;;;21.54;47.36
61119;BME280;51448;51.660;5.824;2023-05-20T15:03:11;101862.00;;;21.56;48.03
61119;BME280;51448;51.660;5.824;2023-05-20T15:05:59;101857.91;;;21.65;47.58
61119;BME280;51448;51.660;5.824;2023-05-20T15:08:47;101853.94;;;21.72;47.49
61119;BME280;51448;51.660;5.824;2023-05-20T15:11:34;101838.19;;;21.96;46.93
61119;BME280;51448;51.660;5.824;2023-05-20T15:14:22;101847.44;;;22.21;46.84